Chard, United Kingdom
Current Conditions -  °F | °C
As of 10:50 AM on Friday 28 Nov 2014 (Local Time) from EGDY Reporting Station
Haze Haze  
Wind Chill: 52°   Ceiling: 1400
Heat Index: 52°   Visibility: 5mi
Dew Point: 48°   Wind: 17mph
Humidity: 88%   Direction: 70°ENE
Pressure: 29.53"   Gusts: NA
Location:  50.87°N, 2.97°W
Report Text: EGDY 281050Z 07015KT 8000 HZ SCT012 BKN014 11/09 Q1000 GRN NOSIG
Loading
Personal Weather Stations






























Interactive Weather Map New forecast layout! Learn more

10-Day Weather Forecast

Advertisements
Track Severe Weather on mobile